Terminal Aerodrome Forecast
Issued by NWS

Home | Current Version | Previous Version | Text Only | Print | Product List | Glossary On
Versions: 1 2 3 4 5 6 7 8 9 10 11 12 13 14 15 16
778
FTUS42 KTBW 230520
TAFPIE
TAF
KPIE 230520Z 2306/2406 VRB04KT P6SM BKN050 BKN250
     FM231400 14008KT P6SM SCT030 SCT250
     FM231800 19008KT P6SM SCT040 SCT250
     FM232100 27008KT P6SM SCT050 SCT250
     FM240100 VRB04KT P6SM SCT040 SCT250=

USA.gov is the U.S. government's official web portal to all federal, state and local government web resources and services.